Bee, Nebraska
Current Conditions -  °F | °C
As of 4:54 AM on Friday 28 Nov 2014 (Local Time) from KLNK Reporting Station
Clear Clear  
Wind Chill: 24°   Ceiling: Unl
Heat Index: 29°   Visibility: 10mi
Dew Point: 20°   Wind: 5mph
Humidity: 69%   Direction: 160°SSE
Pressure: 29.94"   Gusts: NA
Location:  41.01°N, 97.06°W
Report Text: KLNK 281054Z AUTO 16004KT 10SM CLR M02/M07 A2994 RMK AO2 SLP152 T10171067
Loading
Personal Weather Stations






























Interactive Weather Map New forecast layout! Learn more

10-Day Weather Forecast

Advertisements
Track Severe Weather on mobile